sensor_id;sensor_type;location;lat;lon;timestamp;P1;durP1;ratioP1;P2;durP2;ratioP2
25349;SDS011;13302;48.796;11.978;2023-02-01T00:00:22;3.23;;;2.60;;
25349;SDS011;13302;48.796;11.978;2023-02-01T00:03:09;2.50;;;2.40;;
25349;SDS011;13302;48.796;11.978;2023-02-01T00:05:58;2.97;;;2.40;;
25349;SDS011;13302;48.796;11.978;2023-02-01T00:08:45;2.87;;;2.50;;
25349;SDS011;13302;48.796;11.978;2023-02-01T00:11:32;1.97;;;1.87;;
25349;SDS011;13302;48.796;11.978;2023-02-01T00:14:20;2.40;;;2.20;;
25349;SDS011;13302;48.796;11.978;2023-02-01T00:17:08;3.73;;;2.67;;
25349;SDS011;13302;48.796;11.978;2023-02-01T00:19:55;2.33;;;2.00;;
25349;SDS011;13302;48.796;11.978;2023-02-01T00:22:42;2.30;;;2.10;;
25349;SDS011;13302;48.796;11.978;2023-02-01T00:25:28;2.63;;;2.43;;
25349;SDS011;13302;48.796;11.978;2023-02-01T00:28:15;2.50;;;2.40;;
25349;SDS011;13302;48.796;11.978;2023-02-01T00:31:03;2.60;;;2.50;;
25349;SDS011;13302;48.796;11.978;2023-02-01T00:33:51;2.03;;;2.00;;
25349;SDS011;13302;48.796;11.978;2023-02-01T00:36:38;2.67;;;2.47;;
25349;SDS011;13302;48.796;11.978;2023-02-01T00:39:25;2.50;;;2.20;;
25349;SDS011;13302;48.796;11.978;2023-02-01T00:42:12;2.50;;;2.30;;
25349;SDS011;13302;48.796;11.978;2023-02-01T00:44:59;2.30;;;2.20;;
25349;SDS011;13302;48.796;11.978;2023-02-01T00:47:46;2.43;;;2.33;;
25349;SDS011;13302;48.796;11.978;2023-02-01T00:50:33;2.33;;;2.13;;
25349;SDS011;13302;48.796;11.978;2023-02-01T00:53:20;2.57;;;2.27;;
25349;SDS011;13302;48.796;11.978;2023-02-01T00:56:07;2.90;;;2.70;;
25349;SDS011;13302;48.796;11.978;2023-02-01T00:58:55;2.37;;;2.27;;
25349;SDS011;13302;48.796;11.978;2023-02-01T01:01:42;2.77;;;2.57;;
25349;SDS011;13302;48.796;11.978;2023-02-01T01:04:29;2.50;;;2.40;;
25349;SDS011;13302;48.796;11.978;2023-02-01T01:07:16;2.63;;;2.03;;
25349;SDS011;13302;48.796;11.978;2023-02-01T01:10:05;2.23;;;2.13;;
25349;SDS011;13302;48.796;11.978;2023-02-01T01:12:52;2.23;;;2.13;;
25349;SDS011;13302;48.796;11.978;2023-02-01T01:15:39;2.20;;;2.10;;
25349;SDS011;13302;48.796;11.978;2023-02-01T01:18:26;3.63;;;2.37;;
25349;SDS011;13302;48.796;11.978;2023-02-01T01:21:14;2.43;;;2.33;;
25349;SDS011;13302;48.796;11.978;2023-02-01T01:24:01;2.67;;;2.47;;
25349;SDS011;13302;48.796;11.978;2023-02-01T01:26:49;3.43;;;2.23;;
25349;SDS011;13302;48.796;11.978;2023-02-01T01:29:36;2.43;;;2.33;;
25349;SDS011;13302;48.796;11.978;2023-02-01T01:32:23;2.80;;;2.60;;
25349;SDS011;13302;48.796;11.978;2023-02-01T01:35:10;2.70;;;2.50;;
25349;SDS011;13302;48.796;11.978;2023-02-01T01:37:57;2.30;;;2.20;;
25349;SDS011;13302;48.796;11.978;2023-02-01T01:40:46;2.10;;;2.00;;
25349;SDS011;13302;48.796;11.978;2023-02-01T01:43:47;2.30;;;2.10;;
25349;SDS011;13302;48.796;11.978;2023-02-01T01:46:40;2.60;;;2.40;;
25349;SDS011;13302;48.796;11.978;2023-02-01T01:49:27;2.70;;;2.50;;
25349;SDS011;13302;48.796;11.978;2023-02-01T01:52:14;3.10;;;2.27;;
25349;SDS011;13302;48.796;11.978;2023-02-01T01:55:02;2.00;;;1.90;;
25349;SDS011;13302;48.796;11.978;2023-02-01T01:57:52;2.27;;;2.17;;
25349;SDS011;13302;48.796;11.978;2023-02-01T02:00:47;1.93;;;1.83;;
25349;SDS011;13302;48.796;11.978;2023-02-01T02:03:39;2.17;;;2.00;;
25349;SDS011;13302;48.796;11.978;2023-02-01T02:09:34;2.00;;;1.90;;
25349;SDS011;13302;48.796;11.978;2023-02-01T02:12:22;2.63;;;2.53;;
25349;SDS011;13302;48.796;11.978;2023-02-01T02:15:09;2.40;;;2.30;;
25349;SDS011;13302;48.796;11.978;2023-02-01T02:18:15;2.03;;;1.93;;
25349;SDS011;13302;48.796;11.978;2023-02-01T02:21:15;2.53;;;2.33;;
25349;SDS011;13302;48.796;11.978;2023-02-01T02:33:38;2.77;;;2.57;;
25349;SDS011;13302;48.796;11.978;2023-02-01T02:40:04;2.07;;;1.97;;
25349;SDS011;13302;48.796;11.978;2023-02-01T02:46:37;2.30;;;2.20;;
25349;SDS011;13302;48.796;11.978;2023-02-01T02:49:51;2.40;;;2.20;;
25349;SDS011;13302;48.796;11.978;2023-02-01T02:53:10;2.40;;;2.30;;
25349;SDS011;13302;48.796;11.978;2023-02-01T02:56:20;2.23;;;2.10;;
25349;SDS011;13302;48.796;11.978;2023-02-01T02:59:28;2.53;;;2.33;;
25349;SDS011;13302;48.796;11.978;2023-02-01T03:02:36;2.97;;;2.10;;
25349;SDS011;13302;48.796;11.978;2023-02-01T03:05:45;2.17;;;2.07;;
25349;SDS011;13302;48.796;11.978;2023-02-01T03:08:34;2.57;;;2.40;;
25349;SDS011;13302;48.796;11.978;2023-02-01T03:11:21;2.13;;;2.03;;
25349;SDS011;13302;48.796;11.978;2023-02-01T03:14:10;2.33;;;2.23;;
25349;SDS011;13302;48.796;11.978;2023-02-01T03:17:00;2.30;;;2.10;;
25349;SDS011;13302;48.796;11.978;2023-02-01T03:19:54;2.47;;;2.27;;
25349;SDS011;13302;48.796;11.978;2023-02-01T03:22:46;2.23;;;2.13;;
25349;SDS011;13302;48.796;11.978;2023-02-01T03:25:36;2.33;;;2.23;;
25349;SDS011;13302;48.796;11.978;2023-02-01T03:28:24;2.40;;;2.20;;
25349;SDS011;13302;48.796;11.978;2023-02-01T03:31:14;2.00;;;1.90;;
25349;SDS011;13302;48.796;11.978;2023-02-01T03:34:03;2.20;;;2.10;;
25349;SDS011;13302;48.796;11.978;2023-02-01T03:36:57;2.23;;;2.10;;
25349;SDS011;13302;48.796;11.978;2023-02-01T03:39:50;2.10;;;2.00;;
25349;SDS011;13302;48.796;11.978;2023-02-01T03:42:48;2.30;;;2.20;;
25349;SDS011;13302;48.796;11.978;2023-02-01T03:45:41;2.30;;;2.20;;
25349;SDS011;13302;48.796;11.978;2023-02-01T03:48:33;2.30;;;2.10;;
25349;SDS011;13302;48.796;11.978;2023-02-01T03:51:22;2.30;;;2.20;;
25349;SDS011;13302;48.796;11.978;2023-02-01T03:54:12;2.20;;;2.10;;
25349;SDS011;13302;48.796;11.978;2023-02-01T03:57:05;2.50;;;2.40;;
25349;SDS011;13302;48.796;11.978;2023-02-01T04:00:03;2.30;;;2.20;;
25349;SDS011;13302;48.796;11.978;2023-02-01T04:03:11;2.43;;;2.33;;
25349;SDS011;13302;48.796;11.978;2023-02-01T04:05:58;2.90;;;2.60;;
25349;SDS011;13302;48.796;11.978;2023-02-01T04:08:47;2.70;;;2.50;;
25349;SDS011;13302;48.796;11.978;2023-02-01T04:11:34;2.30;;;2.10;;
25349;SDS011;13302;48.796;11.978;2023-02-01T04:14:21;2.53;;;2.37;;
25349;SDS011;13302;48.796;11.978;2023-02-01T04:17:08;2.67;;;2.47;;
25349;SDS011;13302;48.796;11.978;2023-02-01T04:19:55;2.30;;;2.20;;
25349;SDS011;13302;48.796;11.978;2023-02-01T04:22:42;2.63;;;2.43;;
25349;SDS011;13302;48.796;11.978;2023-02-01T04:25:30;2.70;;;2.50;;
25349;SDS011;13302;48.796;11.978;2023-02-01T04:28:17;2.60;;;2.50;;
25349;SDS011;13302;48.796;11.978;2023-02-01T04:31:04;2.73;;;2.57;;
25349;SDS011;13302;48.796;11.978;2023-02-01T04:33:51;2.17;;;2.07;;
25349;SDS011;13302;48.796;11.978;2023-02-01T04:36:39;2.47;;;2.30;;
25349;SDS011;13302;48.796;11.978;2023-02-01T04:39:26;2.60;;;2.40;;
25349;SDS011;13302;48.796;11.978;2023-02-01T04:42:13;2.30;;;2.20;;
25349;SDS011;13302;48.796;11.978;2023-02-01T04:45:00;2.53;;;2.33;;
25349;SDS011;13302;48.796;11.978;2023-02-01T04:47:47;2.13;;;2.03;;
25349;SDS011;13302;48.796;11.978;2023-02-01T04:50:35;2.07;;;1.97;;
25349;SDS011;13302;48.796;11.978;2023-02-01T04:53:22;2.30;;;2.20;;
25349;SDS011;13302;48.796;11.978;2023-02-01T04:56:09;2.33;;;2.23;;
25349;SDS011;13302;48.796;11.978;2023-02-01T04:58:56;2.30;;;2.20;;
25349;SDS011;13302;48.796;11.978;2023-02-01T05:01:43;2.33;;;2.23;;
25349;SDS011;13302;48.796;11.978;2023-02-01T05:04:30;2.63;;;2.43;;
25349;SDS011;13302;48.796;11.978;2023-02-01T05:07:17;2.13;;;2.03;;
25349;SDS011;13302;48.796;11.978;2023-02-01T05:10:04;2.30;;;2.20;;
25349;SDS011;13302;48.796;11.978;2023-02-01T05:12:51;2.20;;;2.10;;
25349;SDS011;13302;48.796;11.978;2023-02-01T05:15:57;2.27;;;2.17;;
25349;SDS011;13302;48.796;11.978;2023-02-01T05:18:44;2.10;;;2.00;;
25349;SDS011;13302;48.796;11.978;2023-02-01T05:21:31;2.03;;;1.93;;
25349;SDS011;13302;48.796;11.978;2023-02-01T05:24:18;2.10;;;2.00;;
25349;SDS011;13302;48.796;11.978;2023-02-01T05:27:08;2.27;;;2.07;;
25349;SDS011;13302;48.796;11.978;2023-02-01T05:29:55;2.30;;;2.10;;
25349;SDS011;13302;48.796;11.978;2023-02-01T05:32:42;2.03;;;1.93;;
25349;SDS011;13302;48.796;11.978;2023-02-01T05:35:29;3.77;;;3.37;;
25349;SDS011;13302;48.796;11.978;2023-02-01T05:38:16;2.87;;;2.67;;
25349;SDS011;13302;48.796;11.978;2023-02-01T05:41:03;2.70;;;2.50;;
25349;SDS011;13302;48.796;11.978;2023-02-01T05:43:50;2.73;;;2.53;;
25349;SDS011;13302;48.796;11.978;2023-02-01T05:46:37;1.77;;;1.67;;
25349;SDS011;13302;48.796;11.978;2023-02-01T05:49:24;4.77;;;4.00;;
25349;SDS011;13302;48.796;11.978;2023-02-01T05:52:11;2.97;;;2.70;;
25349;SDS011;13302;48.796;11.978;2023-02-01T05:54:59;3.20;;;2.70;;
25349;SDS011;13302;48.796;11.978;2023-02-01T05:57:46;2.70;;;2.50;;
25349;SDS011;13302;48.796;11.978;2023-02-01T06:00:33;5.40;;;4.30;;
25349;SDS011;13302;48.796;11.978;2023-02-01T06:03:20;5.17;;;4.03;;
25349;SDS011;13302;48.796;11.978;2023-02-01T06:06:07;3.93;;;3.13;;
25349;SDS011;13302;48.796;11.978;2023-02-01T06:08:54;7.13;;;5.47;;
25349;SDS011;13302;48.796;11.978;2023-02-01T06:11:41;7.27;;;5.37;;
25349;SDS011;13302;48.796;11.978;2023-02-01T06:14:28;5.13;;;4.43;;
25349;SDS011;13302;48.796;11.978;2023-02-01T06:17:15;2.70;;;2.50;;
25349;SDS011;13302;48.796;11.978;2023-02-01T06:20:03;2.60;;;2.37;;
25349;SDS011;13302;48.796;11.978;2023-02-01T06:22:50;3.33;;;3.00;;
25349;SDS011;13302;48.796;11.978;2023-02-01T06:25:39;2.57;;;2.40;;
25349;SDS011;13302;48.796;11.978;2023-02-01T06:28:26;2.27;;;2.17;;
25349;SDS011;13302;48.796;11.978;2023-02-01T06:31:14;3.53;;;3.07;;
25349;SDS011;13302;48.796;11.978;2023-02-01T06:34:02;5.30;;;4.80;;
25349;SDS011;13302;48.796;11.978;2023-02-01T06:36:49;3.07;;;2.87;;
25349;SDS011;13302;48.796;11.978;2023-02-01T06:39:36;2.90;;;2.70;;
25349;SDS011;13302;48.796;11.978;2023-02-01T06:42:23;3.03;;;2.83;;
25349;SDS011;13302;48.796;11.978;2023-02-01T06:45:10;2.90;;;2.70;;
25349;SDS011;13302;48.796;11.978;2023-02-01T06:47:58;2.10;;;2.00;;
25349;SDS011;13302;48.796;11.978;2023-02-01T06:50:46;2.23;;;2.13;;
25349;SDS011;13302;48.796;11.978;2023-02-01T06:53:33;2.70;;;2.50;;
25349;SDS011;13302;48.796;11.978;2023-02-01T06:56:21;2.30;;;2.20;;
25349;SDS011;13302;48.796;11.978;2023-02-01T06:59:09;1.50;;;1.50;;
25349;SDS011;13302;48.796;11.978;2023-02-01T07:01:56;2.30;;;2.20;;
25349;SDS011;13302;48.796;11.978;2023-02-01T07:04:43;3.27;;;3.07;;
25349;SDS011;13302;48.796;11.978;2023-02-01T07:07:30;2.17;;;2.00;;
25349;SDS011;13302;48.796;11.978;2023-02-01T07:10:17;2.83;;;2.63;;
25349;SDS011;13302;48.796;11.978;2023-02-01T07:13:05;2.00;;;1.90;;
25349;SDS011;13302;48.796;11.978;2023-02-01T07:15:52;2.03;;;1.93;;
25349;SDS011;13302;48.796;11.978;2023-02-01T07:18:38;1.80;;;1.70;;
25349;SDS011;13302;48.796;11.978;2023-02-01T07:21:26;1.90;;;1.80;;
25349;SDS011;13302;48.796;11.978;2023-02-01T07:24:14;1.77;;;1.67;;
25349;SDS011;13302;48.796;11.978;2023-02-01T07:27:01;2.20;;;2.00;;
25349;SDS011;13302;48.796;11.978;2023-02-01T07:29:48;1.90;;;1.80;;
25349;SDS011;13302;48.796;11.978;2023-02-01T07:32:35;2.13;;;2.03;;
25349;SDS011;13302;48.796;11.978;2023-02-01T07:35:23;1.80;;;1.70;;
25349;SDS011;13302;48.796;11.978;2023-02-01T07:38:10;1.80;;;1.70;;
25349;SDS011;13302;48.796;11.978;2023-02-01T07:41:01;1.67;;;1.67;;
25349;SDS011;13302;48.796;11.978;2023-02-01T07:43:51;1.90;;;1.80;;
25349;SDS011;13302;48.796;11.978;2023-02-01T07:46:39;1.80;;;1.70;;
25349;SDS011;13302;48.796;11.978;2023-02-01T07:49:26;1.90;;;1.80;;
25349;SDS011;13302;48.796;11.978;2023-02-01T07:52:13;2.30;;;2.20;;
25349;SDS011;13302;48.796;11.978;2023-02-01T07:55:04;4.30;;;3.50;;
25349;SDS011;13302;48.796;11.978;2023-02-01T07:57:51;2.17;;;2.07;;
25349;SDS011;13302;48.796;11.978;2023-02-01T08:00:38;1.80;;;1.70;;
25349;SDS011;13302;48.796;11.978;2023-02-01T08:03:44;5.17;;;4.47;;
25349;SDS011;13302;48.796;11.978;2023-02-01T08:06:31;2.00;;;1.90;;
25349;SDS011;13302;48.796;11.978;2023-02-01T08:09:20;1.97;;;1.87;;
25349;SDS011;13302;48.796;11.978;2023-02-01T08:12:07;1.67;;;1.57;;
25349;SDS011;13302;48.796;11.978;2023-02-01T08:14:54;2.37;;;1.70;;
25349;SDS011;13302;48.796;11.978;2023-02-01T08:17:46;2.27;;;2.17;;
25349;SDS011;13302;48.796;11.978;2023-02-01T08:20:35;2.80;;;2.60;;
25349;SDS011;13302;48.796;11.978;2023-02-01T08:23:22;2.17;;;1.97;;
25349;SDS011;13302;48.796;11.978;2023-02-01T08:26:23;2.43;;;2.33;;
25349;SDS011;13302;48.796;11.978;2023-02-01T08:29:11;2.60;;;2.40;;
25349;SDS011;13302;48.796;11.978;2023-02-01T08:32:00;2.27;;;2.17;;
25349;SDS011;13302;48.796;11.978;2023-02-01T08:34:47;1.73;;;1.63;;
25349;SDS011;13302;48.796;11.978;2023-02-01T08:37:34;1.70;;;1.60;;
25349;SDS011;13302;48.796;11.978;2023-02-01T08:40:21;1.50;;;1.50;;
25349;SDS011;13302;48.796;11.978;2023-02-01T08:43:12;2.80;;;2.30;;
25349;SDS011;13302;48.796;11.978;2023-02-01T08:46:01;1.50;;;1.50;;
25349;SDS011;13302;48.796;11.978;2023-02-01T08:48:49;2.00;;;1.90;;
25349;SDS011;13302;48.796;11.978;2023-02-01T08:51:36;1.80;;;1.70;;
25349;SDS011;13302;48.796;11.978;2023-02-01T08:54:23;1.47;;;1.47;;
25349;SDS011;13302;48.796;11.978;2023-02-01T08:57:10;2.03;;;1.93;;
25349;SDS011;13302;48.796;11.978;2023-02-01T08:59:58;2.00;;;1.90;;
25349;SDS011;13302;48.796;11.978;2023-02-01T09:02:46;2.00;;;1.90;;
25349;SDS011;13302;48.796;11.978;2023-02-01T09:05:33;2.47;;;2.27;;
25349;SDS011;13302;48.796;11.978;2023-02-01T09:08:35;2.27;;;2.10;;
25349;SDS011;13302;48.796;11.978;2023-02-01T09:11:23;2.67;;;1.90;;
25349;SDS011;13302;48.796;11.978;2023-02-01T09:14:10;2.07;;;1.87;;
25349;SDS011;13302;48.796;11.978;2023-02-01T09:16:57;2.67;;;2.10;;
25349;SDS011;13302;48.796;11.978;2023-02-01T09:19:44;2.00;;;1.90;;
25349;SDS011;13302;48.796;11.978;2023-02-01T09:22:31;2.17;;;2.03;;
25349;SDS011;13302;48.796;11.978;2023-02-01T09:25:18;2.97;;;2.77;;
25349;SDS011;13302;48.796;11.978;2023-02-01T09:28:06;2.17;;;2.07;;
25349;SDS011;13302;48.796;11.978;2023-02-01T09:30:59;1.97;;;1.87;;
25349;SDS011;13302;48.796;11.978;2023-02-01T09:33:48;2.03;;;2.00;;
25349;SDS011;13302;48.796;11.978;2023-02-01T09:36:35;1.97;;;1.73;;
25349;SDS011;13302;48.796;11.978;2023-02-01T09:39:22;2.07;;;1.97;;
25349;SDS011;13302;48.796;11.978;2023-02-01T09:42:15;1.90;;;1.80;;
25349;SDS011;13302;48.796;11.978;2023-02-01T09:45:14;1.80;;;1.70;;
25349;SDS011;13302;48.796;11.978;2023-02-01T09:48:15;2.03;;;1.93;;
25349;SDS011;13302;48.796;11.978;2023-02-01T09:51:11;2.00;;;1.90;;
25349;SDS011;13302;48.796;11.978;2023-02-01T09:54:04;1.70;;;1.70;;
25349;SDS011;13302;48.796;11.978;2023-02-01T10:00:05;1.87;;;1.77;;
25349;SDS011;13302;48.796;11.978;2023-02-01T10:03:02;1.93;;;1.87;;
25349;SDS011;13302;48.796;11.978;2023-02-01T10:21:21;2.00;;;1.90;;
25349;SDS011;13302;48.796;11.978;2023-02-01T10:24:31;1.70;;;1.60;;
25349;SDS011;13302;48.796;11.978;2023-02-01T10:27:33;2.50;;;1.60;;
25349;SDS011;13302;48.796;11.978;2023-02-01T10:30:24;1.77;;;1.67;;
25349;SDS011;13302;48.796;11.978;2023-02-01T10:33:24;2.10;;;2.00;;
25349;SDS011;13302;48.796;11.978;2023-02-01T10:39:16;1.83;;;1.73;;
25349;SDS011;13302;48.796;11.978;2023-02-01T10:42:04;1.50;;;1.50;;
25349;SDS011;13302;48.796;11.978;2023-02-01T10:44:51;1.73;;;1.63;;
25349;SDS011;13302;48.796;11.978;2023-02-01T10:47:41;1.90;;;1.80;;
25349;SDS011;13302;48.796;11.978;2023-02-01T10:50:41;1.80;;;1.67;;
25349;SDS011;13302;48.796;11.978;2023-02-01T10:53:44;1.60;;;1.57;;
25349;SDS011;13302;48.796;11.978;2023-02-01T10:56:51;1.87;;;1.70;;
25349;SDS011;13302;48.796;11.978;2023-02-01T10:59:40;1.63;;;1.53;;
25349;SDS011;13302;48.796;11.978;2023-02-01T11:02:29;1.93;;;1.83;;
25349;SDS011;13302;48.796;11.978;2023-02-01T11:05:19;1.53;;;1.53;;
25349;SDS011;13302;48.796;11.978;2023-02-01T11:08:12;2.00;;;1.90;;
25349;SDS011;13302;48.796;11.978;2023-02-01T11:11:03;2.50;;;2.30;;
25349;SDS011;13302;48.796;11.978;2023-02-01T11:14:10;2.97;;;2.57;;
25349;SDS011;13302;48.796;11.978;2023-02-01T11:17:03;3.47;;;3.07;;
25349;SDS011;13302;48.796;11.978;2023-02-01T11:20:15;4.23;;;3.77;;
25349;SDS011;13302;48.796;11.978;2023-02-01T11:23:04;7.03;;;5.77;;
25349;SDS011;13302;48.796;11.978;2023-02-01T11:25:55;7.37;;;5.13;;
25349;SDS011;13302;48.796;11.978;2023-02-01T11:28:50;7.27;;;5.53;;
25349;SDS011;13302;48.796;11.978;2023-02-01T11:31:40;4.57;;;3.67;;
25349;SDS011;13302;48.796;11.978;2023-02-01T11:34:37;7.70;;;3.83;;
25349;SDS011;13302;48.796;11.978;2023-02-01T11:37:30;2.93;;;2.67;;
25349;SDS011;13302;48.796;11.978;2023-02-01T11:43:25;5.30;;;4.80;;
25349;SDS011;13302;48.796;11.978;2023-02-01T11:46:16;3.00;;;2.70;;
25349;SDS011;13302;48.796;11.978;2023-02-01T11:49:19;4.50;;;3.10;;
25349;SDS011;13302;48.796;11.978;2023-02-01T11:52:12;4.37;;;3.97;;
25349;SDS011;13302;48.796;11.978;2023-02-01T12:36:21;3.53;;;2.73;;
25349;SDS011;13302;48.796;11.978;2023-02-01T12:39:32;3.23;;;2.63;;
25349;SDS011;13302;48.796;11.978;2023-02-01T12:42:29;2.57;;;2.37;;
25349;SDS011;13302;48.796;11.978;2023-02-01T12:45:27;2.10;;;1.90;;
25349;SDS011;13302;48.796;11.978;2023-02-01T12:48:39;2.37;;;2.10;;
25349;SDS011;13302;48.796;11.978;2023-02-01T12:51:31;2.37;;;2.17;;
25349;SDS011;13302;48.796;11.978;2023-02-01T12:54:23;2.73;;;2.50;;
25349;SDS011;13302;48.796;11.978;2023-02-01T12:57:21;2.60;;;2.40;;
25349;SDS011;13302;48.796;11.978;2023-02-01T13:00:18;3.50;;;2.43;;
25349;SDS011;13302;48.796;11.978;2023-02-01T13:03:20;3.37;;;3.00;;
25349;SDS011;13302;48.796;11.978;2023-02-01T13:06:24;4.23;;;3.23;;
25349;SDS011;13302;48.796;11.978;2023-02-01T13:12:26;4.87;;;3.00;;
25349;SDS011;13302;48.796;11.978;2023-02-01T13:15:26;3.23;;;3.03;;
25349;SDS011;13302;48.796;11.978;2023-02-01T13:18:18;3.80;;;3.00;;
25349;SDS011;13302;48.796;11.978;2023-02-01T13:21:14;3.90;;;3.10;;
25349;SDS011;13302;48.796;11.978;2023-02-01T13:24:06;2.47;;;2.27;;
25349;SDS011;13302;48.796;11.978;2023-02-01T13:27:20;3.40;;;3.10;;
25349;SDS011;13302;48.796;11.978;2023-02-01T13:36:26;5.40;;;3.10;;
25349;SDS011;13302;48.796;11.978;2023-02-01T13:42:50;3.00;;;2.70;;
25349;SDS011;13302;48.796;11.978;2023-02-01T13:45:44;3.17;;;2.27;;
25349;SDS011;13302;48.796;11.978;2023-02-01T13:48:45;3.47;;;2.70;;
25349;SDS011;13302;48.796;11.978;2023-02-01T13:51:38;3.37;;;2.53;;
25349;SDS011;13302;48.796;11.978;2023-02-01T14:04:45;3.53;;;2.30;;
25349;SDS011;13302;48.796;11.978;2023-02-01T14:07:33;2.50;;;2.30;;
25349;SDS011;13302;48.796;11.978;2023-02-01T14:13:39;2.80;;;2.27;;
25349;SDS011;13302;48.796;11.978;2023-02-01T14:16:27;2.90;;;2.10;;
25349;SDS011;13302;48.796;11.978;2023-02-01T14:25:18;4.43;;;2.17;;
25349;SDS011;13302;48.796;11.978;2023-02-01T14:28:22;2.90;;;2.80;;
25349;SDS011;13302;48.796;11.978;2023-02-01T14:31:18;4.17;;;2.70;;
25349;SDS011;13302;48.796;11.978;2023-02-01T14:37:23;4.57;;;3.23;;
25349;SDS011;13302;48.796;11.978;2023-02-01T14:40:23;3.80;;;2.37;;
25349;SDS011;13302;48.796;11.978;2023-02-01T14:43:12;4.20;;;2.30;;
25349;SDS011;13302;48.796;11.978;2023-02-01T14:46:18;5.17;;;3.60;;
25349;SDS011;13302;48.796;11.978;2023-02-01T14:49:06;4.60;;;3.23;;
25349;SDS011;13302;48.796;11.978;2023-02-01T14:51:53;6.80;;;2.93;;
25349;SDS011;13302;48.796;11.978;2023-02-01T14:54:40;4.20;;;2.80;;
25349;SDS011;13302;48.796;11.978;2023-02-01T14:57:27;2.93;;;2.33;;
25349;SDS011;13302;48.796;11.978;2023-02-01T15:00:20;4.63;;;2.23;;
25349;SDS011;13302;48.796;11.978;2023-02-01T15:06:53;4.37;;;2.27;;
25349;SDS011;13302;48.796;11.978;2023-02-01T15:09:24;3.33;;;1.90;;
25349;SDS011;13302;48.796;11.978;2023-02-01T15:12:18;6.70;;;2.00;;
25349;SDS011;13302;48.796;11.978;2023-02-01T15:18:14;4.33;;;1.93;;
25349;SDS011;13302;48.796;11.978;2023-02-01T15:21:04;3.83;;;2.23;;
25349;SDS011;13302;48.796;11.978;2023-02-01T15:24:13;4.30;;;2.77;;
25349;SDS011;13302;48.796;11.978;2023-02-01T15:27:02;5.57;;;2.60;;
25349;SDS011;13302;48.796;11.978;2023-02-01T15:29:51;5.07;;;3.17;;
25349;SDS011;13302;48.796;11.978;2023-02-01T15:32:39;5.63;;;3.30;;
25349;SDS011;13302;48.796;11.978;2023-02-01T15:41:19;6.00;;;3.23;;
25349;SDS011;13302;48.796;11.978;2023-02-01T15:44:14;5.70;;;2.90;;
25349;SDS011;13302;48.796;11.978;2023-02-01T15:47:16;3.67;;;2.77;;
25349;SDS011;13302;48.796;11.978;2023-02-01T15:50:12;2.53;;;2.17;;
25349;SDS011;13302;48.796;11.978;2023-02-01T15:53:01;6.63;;;3.93;;
25349;SDS011;13302;48.796;11.978;2023-02-01T15:55:50;8.00;;;4.00;;
25349;SDS011;13302;48.796;11.978;2023-02-01T15:58:41;5.60;;;3.10;;
25349;SDS011;13302;48.796;11.978;2023-02-01T16:01:35;5.37;;;3.87;;
25349;SDS011;13302;48.796;11.978;2023-02-01T16:04:25;3.23;;;2.80;;
25349;SDS011;13302;48.796;11.978;2023-02-01T16:07:53;6.23;;;3.33;;
25349;SDS011;13302;48.796;11.978;2023-02-01T16:10:41;5.07;;;3.07;;
25349;SDS011;13302;48.796;11.978;2023-02-01T16:13:30;2.47;;;1.50;;
25349;SDS011;13302;48.796;11.978;2023-02-01T16:16:16;3.23;;;2.07;;
25349;SDS011;13302;48.796;11.978;2023-02-01T16:19:04;2.50;;;1.80;;
25349;SDS011;13302;48.796;11.978;2023-02-01T16:21:50;3.47;;;1.80;;
25349;SDS011;13302;48.796;11.978;2023-02-01T16:24:37;2.70;;;1.73;;
25349;SDS011;13302;48.796;11.978;2023-02-01T16:27:24;3.23;;;1.90;;
25349;SDS011;13302;48.796;11.978;2023-02-01T16:30:11;4.20;;;1.97;;
25349;SDS011;13302;48.796;11.978;2023-02-01T16:32:59;1.83;;;1.47;;
25349;SDS011;13302;48.796;11.978;2023-02-01T16:35:52;3.17;;;1.60;;
25349;SDS011;13302;48.796;11.978;2023-02-01T16:38:44;3.40;;;1.83;;
25349;SDS011;13302;48.796;11.978;2023-02-01T16:41:33;4.50;;;2.00;;
25349;SDS011;13302;48.796;11.978;2023-02-01T16:44:20;3.07;;;1.70;;
25349;SDS011;13302;48.796;11.978;2023-02-01T16:47:11;3.70;;;1.83;;
25349;SDS011;13302;48.796;11.978;2023-02-01T16:50:04;4.83;;;1.80;;
25349;SDS011;13302;48.796;11.978;2023-02-01T16:53:09;3.47;;;1.83;;
25349;SDS011;13302;48.796;11.978;2023-02-01T16:56:00;3.53;;;2.03;;
25349;SDS011;13302;48.796;11.978;2023-02-01T16:58:51;3.83;;;1.73;;
25349;SDS011;13302;48.796;11.978;2023-02-01T17:01:39;3.10;;;1.67;;
25349;SDS011;13302;48.796;11.978;2023-02-01T17:04:28;3.03;;;1.80;;
25349;SDS011;13302;48.796;11.978;2023-02-01T17:07:16;3.43;;;2.07;;
25349;SDS011;13302;48.796;11.978;2023-02-01T17:10:05;4.60;;;2.00;;
25349;SDS011;13302;48.796;11.978;2023-02-01T17:13:14;4.27;;;1.63;;
25349;SDS011;13302;48.796;11.978;2023-02-01T17:16:03;4.63;;;1.93;;
25349;SDS011;13302;48.796;11.978;2023-02-01T17:18:59;2.30;;;1.80;;
25349;SDS011;13302;48.796;11.978;2023-02-01T17:21:50;2.33;;;1.50;;
25349;SDS011;13302;48.796;11.978;2023-02-01T17:24:40;2.43;;;1.93;;
25349;SDS011;13302;48.796;11.978;2023-02-01T17:27:34;1.77;;;1.47;;
25349;SDS011;13302;48.796;11.978;2023-02-01T17:30:23;3.30;;;2.00;;
25349;SDS011;13302;48.796;11.978;2023-02-01T17:33:19;6.30;;;2.10;;
25349;SDS011;13302;48.796;11.978;2023-02-01T17:36:13;2.63;;;1.90;;
25349;SDS011;13302;48.796;11.978;2023-02-01T17:39:02;3.20;;;1.70;;
25349;SDS011;13302;48.796;11.978;2023-02-01T17:41:52;1.83;;;1.60;;
25349;SDS011;13302;48.796;11.978;2023-02-01T17:44:39;3.90;;;2.13;;
25349;SDS011;13302;48.796;11.978;2023-02-01T17:47:26;4.30;;;1.93;;
25349;SDS011;13302;48.796;11.978;2023-02-01T17:50:13;2.97;;;1.87;;
25349;SDS011;13302;48.796;11.978;2023-02-01T17:53:00;3.83;;;1.97;;
25349;SDS011;13302;48.796;11.978;2023-02-01T17:55:49;1.87;;;1.73;;
25349;SDS011;13302;48.796;11.978;2023-02-01T17:58:36;2.43;;;1.60;;
25349;SDS011;13302;48.796;11.978;2023-02-01T18:01:23;4.10;;;2.20;;
25349;SDS011;13302;48.796;11.978;2023-02-01T18:04:11;5.37;;;1.83;;
25349;SDS011;13302;48.796;11.978;2023-02-01T18:06:58;3.60;;;1.97;;
25349;SDS011;13302;48.796;11.978;2023-02-01T18:09:46;1.67;;;1.50;;
25349;SDS011;13302;48.796;11.978;2023-02-01T18:12:33;3.50;;;2.30;;
25349;SDS011;13302;48.796;11.978;2023-02-01T18:15:21;4.03;;;2.00;;
25349;SDS011;13302;48.796;11.978;2023-02-01T18:18:10;3.23;;;1.67;;
25349;SDS011;13302;48.796;11.978;2023-02-01T18:20:57;2.77;;;1.57;;
25349;SDS011;13302;48.796;11.978;2023-02-01T18:23:45;4.97;;;2.37;;
25349;SDS011;13302;48.796;11.978;2023-02-01T18:26:31;2.00;;;1.80;;
25349;SDS011;13302;48.796;11.978;2023-02-01T18:29:18;3.20;;;1.97;;
25349;SDS011;13302;48.796;11.978;2023-02-01T18:32:07;3.63;;;1.97;;
25349;SDS011;13302;48.796;11.978;2023-02-01T18:34:55;3.27;;;2.00;;
25349;SDS011;13302;48.796;11.978;2023-02-01T18:37:46;2.23;;;1.77;;
25349;SDS011;13302;48.796;11.978;2023-02-01T18:40:36;4.20;;;1.80;;
25349;SDS011;13302;48.796;11.978;2023-02-01T18:43:27;1.90;;;1.80;;
25349;SDS011;13302;48.796;11.978;2023-02-01T18:46:14;3.77;;;2.20;;
25349;SDS011;13302;48.796;11.978;2023-02-01T18:49:02;2.97;;;1.77;;
25349;SDS011;13302;48.796;11.978;2023-02-01T18:51:49;5.17;;;1.93;;
25349;SDS011;13302;48.796;11.978;2023-02-01T18:54:37;4.37;;;2.27;;
25349;SDS011;13302;48.796;11.978;2023-02-01T18:57:39;2.80;;;1.93;;
25349;SDS011;13302;48.796;11.978;2023-02-01T19:00:27;3.93;;;1.83;;
25349;SDS011;13302;48.796;11.978;2023-02-01T19:03:14;2.30;;;1.70;;
25349;SDS011;13302;48.796;11.978;2023-02-01T19:06:02;3.53;;;2.00;;